^^
Your Local Weather - Clay, NY Station Historical Data
Daily Summary for May 11, 2017 Units:  Metric    English   Both
« Previous Day
Next Day »
Daily Weekly Monthly Yearly Custom
  High: Low: Average:
Temperature: 17.2 °C 1.7 °C 9.6 °C
Dew Point: 6.2 °C 0 °C 3.1 °C
Humidity: 92% 39% 67%
Wind Speed: 8km/h 0km/h 2.3km/h
Wind Gust: 12.9km/h - -
Wind- - South
Pressure: 1017.8 hPa 1012.8 hPa -
Precipitation: 0 mm    
Historical Graphs
 
 
Tabular Data for May 11, 2017
Time Temperature Dew Point Pressure Wind Wind Speed Wind Gust Humidity Rainfall Rate (Hourly) solar
00:00 3.2 °C 0.2 °C 1017.8 hPa Calm     81% 0 mm 0 W/m2
00:06 3.1 °C 0.2 °C 1017.8 hPa Calm     81% 0 mm 0 W/m2
00:12 3 °C 0.2 °C 1017.8 hPa Calm     82% 0 mm 0 W/m2
00:18 2.9 °C 0.1 °C 1017.8 hPa Calm     82% 0 mm 0 W/m2
00:24 2.8 °C 0 °C 1017.8 hPa Calm     82% 0 mm 0 W/m2
00:30 2.7 °C 0.1 °C 1017.8 hPa Calm     83% 0 mm 0 W/m2
00:36 2.7 °C 0.3 °C 1017.8 hPa Calm     84% 0 mm 0 W/m2
00:42 2.7 °C 0.2 °C 1017.8 hPa Calm     84% 0 mm 0 W/m2
00:48 2.7 °C 0.4 °C 1017.8 hPa Calm     85% 0 mm 0 W/m2
00:54 2.7 °C 0.2 °C 1017.8 hPa Calm     84% 0 mm 0 W/m2
01:00 2.7 °C 0.4 °C 1017.8 hPa Calm     85% 0 mm 0 W/m2
01:06 2.7 °C 0.4 °C 1017.8 hPa Calm     85% 0 mm 0 W/m2
01:12 2.6 °C 0.3 °C 1017.8 hPa Calm     85% 0 mm 0 W/m2
01:18 2.6 °C 0.5 °C 1017.5 hPa Calm     86% 0 mm 0 W/m2
01:24 2.7 °C 0.6 °C 1017.5 hPa Calm     86% 0 mm 0 W/m2
01:30 2.6 °C 0.5 °C 1017.5 hPa Calm     86% 0 mm 0 W/m2
01:36 2.6 °C 0.6 °C 1017.5 hPa Calm     87% 0 mm 0 W/m2
01:42 2.5 °C 0.6 °C 1017.2 hPa Calm     87% 0 mm 0 W/m2
01:48 2.5 °C 0.6 °C 1017.2 hPa Calm     87% 0 mm 0 W/m2
01:54 2.6 °C 0.8 °C 1016.8 hPa Calm     88% 0 mm 0 W/m2
02:00 2.5 °C 0.7 °C 1016.8 hPa Calm     88% 0 mm 0 W/m2
02:06 2.5 °C 0.7 °C 1017.2 hPa Calm     88% 0 mm 0 W/m2
02:12 2.4 °C 0.6 °C 1016.8 hPa Calm     88% 0 mm 0 W/m2
02:18 2.3 °C 0.6 °C 1016.8 hPa Calm     88% 0 mm 0 W/m2
02:24 2.3 °C 0.5 °C 1016.8 hPa Calm     88% 0 mm 0 W/m2
02:30 2.2 °C 0.4 °C 1016.8 hPa Calm     88% 0 mm 0 W/m2
02:36 2.1 °C 0.3 °C 1016.8 hPa Calm     88% 0 mm 0 W/m2
02:42 2.1 °C 0.3 °C 1016.5 hPa Calm     88% 0 mm 0 W/m2
02:48 2 °C 0.4 °C 1016.5 hPa Calm     89% 0 mm 0 W/m2
02:54 2 °C 0.4 °C 1016.1 hPa Calm     89% 0 mm 0 W/m2
03:00 1.9 °C 0.3 °C 1016.1 hPa Calm     89% 0 mm 0 W/m2
03:06 1.9 °C 0.3 °C 1016.1 hPa Calm     89% 0 mm 0 W/m2
03:12 1.8 °C 0.2 °C 1016.5 hPa Calm     89% 0 mm 0 W/m2
03:18 1.7 °C 0.1 °C 1016.5 hPa Calm     89% 0 mm 0 W/m2
03:24 1.8 °C 0.2 °C 1016.5 hPa Calm     89% 0 mm 0 W/m2
03:30 1.8 °C 0.3 °C 1016.5 hPa Calm     90% 0 mm 0 W/m2
03:36 1.8 °C 0.4 °C 1016.5 hPa Calm     90% 0 mm 0 W/m2
03:42 1.9 °C 0.5 °C 1016.1 hPa Calm     90% 0 mm 0 W/m2
03:48 1.9 °C 0.5 °C 1016.5 hPa Calm     90% 0 mm 0 W/m2
03:54 2 °C 0.6 °C 1016.5 hPa Calm     90% 0 mm 0 W/m2
04:00 1.9 °C 0.5 °C 1016.5 hPa Calm     90% 0 mm 0 W/m2
04:06 1.9 °C 0.5 °C 1016.5 hPa Calm     90% 0 mm 0 W/m2
04:12 2.1 °C 0.6 °C 1016.8 hPa Calm     90% 0 mm 0 W/m2
04:18 2.1 °C 0.7 °C 1016.8 hPa Calm     90% 0 mm 0 W/m2
04:24 2.1 °C 0.8 °C 1016.8 hPa Calm     91% 0 mm 0 W/m2
04:30 2.1 °C 0.7 °C 1016.8 hPa Calm     91% 0 mm 0 W/m2
04:36 2.1 °C 0.7 °C 1016.8 hPa Calm     91% 0 mm 0 W/m2
04:42 1.9 °C 0.6 °C 1016.8 hPa Calm     91% 0 mm 0 W/m2
04:48 1.9 °C 0.6 °C 1016.8 hPa Calm     91% 0 mm 0 W/m2
04:54 1.9 °C 0.6 °C 1016.8 hPa Calm     91% 0 mm 0 W/m2
05:00 1.8 °C 0.5 °C 1016.8 hPa Calm     91% 0 mm 0 W/m2
05:06 1.8 °C 0.5 °C 1016.8 hPa Calm     91% 0 mm 0 W/m2
05:12 1.8 °C 0.4 °C 1017.2 hPa Calm     91% 0 mm 0 W/m2
05:18 1.8 °C 0.4 °C 1016.8 hPa Calm     91% 0 mm 0 W/m2
05:24 1.8 °C 0.4 °C 1016.8 hPa Calm     91% 0 mm 0 W/m2
05:30 1.7 °C 0.3 °C 1016.8 hPa Calm     91% 0 mm 0 W/m2
05:36 1.7 °C 0.3 °C 1016.8 hPa Calm     91% 0 mm 5 W/m2
05:42 1.7 °C 0.3 °C 1016.8 hPa Calm     91% 0 mm 7 W/m2
05:48 1.7 °C 0.3 °C 1016.8 hPa Calm     91% 0 mm 7 W/m2
05:56 1.8 °C 0.4 °C 1016.8 hPa Calm     91% 0 mm 9 W/m2
06:02 1.9 °C 0.7 °C 1016.5 hPa Calm     92% 0 mm 12 W/m2
06:08 2 °C 0.8 °C 1016.5 hPa Calm     92% 0 mm 18 W/m2
06:14 2.1 °C 0.9 °C 1016.5 hPa Calm     92% 0 mm 23 W/m2
06:20 2.2 °C 1 °C 1016.1 hPa Calm     92% 0 mm 30 W/m2
06:26 2.3 °C 1.2 °C 1016.5 hPa Calm     92% 0 mm 39 W/m2
06:32 2.5 °C 1.3 °C 1016.5 hPa Calm     92% 0 mm 70 W/m2
06:38 2.7 °C 1.6 °C 1016.5 hPa Calm     92% 0 mm 79 W/m2
06:44 2.8 °C 1.7 °C 1016.1 hPa Calm     92% 0 mm 58 W/m2
06:50 3 °C 1.8 °C 1016.5 hPa Calm     92% 0 mm 79 W/m2
06:56 3.3 °C 2.1 °C 1016.5 hPa Calm     92% 0 mm 81 W/m2
07:02 3.6 °C 2.4 °C 1016.5 hPa Calm     92% 0 mm 86 W/m2
07:08 3.7 °C 2.6 °C 1016.5 hPa Calm     92% 0 mm 102 W/m2
07:14 4 °C 2.8 °C 1016.1 hPa Calm   3.2 km/h 92% 0 mm 127 W/m2
07:20 4.2 °C 2.9 °C 1016.1 hPa ENE 1.6 km/h 1.6 km/h 91% 0 mm 123 W/m2
07:26 4.4 °C 2.9 °C 1016.1 hPa ENE 1.6 km/h 1.6 km/h 90% 0 mm 130 W/m2
07:32 4.7 °C 2.9 °C 1016.1 hPa Calm   1.6 km/h 88% 0 mm 169 W/m2
07:38 5.2 °C 3.2 °C 1016.1 hPa ENE 1.6 km/h 1.6 km/h 87% 0 mm 223 W/m2
07:44 5.6 °C 3.1 °C 1016.1 hPa NE 1.6 km/h 3.2 km/h 84% 0 mm 253 W/m2
07:50 6.1 °C 3.1 °C 1016.1 hPa ENE 1.6 km/h 1.6 km/h 81% 0 mm 330 W/m2
07:56 6.4 °C 2.9 °C 1016.1 hPa East 1.6 km/h 3.2 km/h 78% 0 mm 225 W/m2
08:02 6.7 °C 2.8 °C 1016.1 hPa ENE 3.2 km/h 4.8 km/h 76% 0 mm 265 W/m2
08:08 7.3 °C 3.1 °C 1016.1 hPa ENE 1.6 km/h 4.8 km/h 75% 0 mm 401 W/m2
08:14 7.6 °C 3.1 °C 1016.1 hPa ENE 1.6 km/h 4.8 km/h 73% 0 mm 265 W/m2
08:20 7.8 °C 2.7 °C 1016.1 hPa ENE 1.6 km/h 1.6 km/h 70% 0 mm 302 W/m2
08:26 7.9 °C 2.8 °C 1016.1 hPa ENE 3.2 km/h 6.4 km/h 70% 0 mm 355 W/m2
08:32 8.2 °C 2.8 °C 1016.1 hPa ENE 3.2 km/h 3.2 km/h 69% 0 mm 411 W/m2
08:38 8.4 °C 2.4 °C 1016.1 hPa NE 3.2 km/h 6.4 km/h 66% 0 mm 438 W/m2
08:44 8.7 °C 2.9 °C 1016.1 hPa ESE 3.2 km/h 4.8 km/h 67% 0 mm 380 W/m2
08:50 9 °C 2.6 °C 1016.1 hPa East 1.6 km/h 1.6 km/h 64% 0 mm 411 W/m2
08:56 9.3 °C 3.1 °C 1016.1 hPa SE 3.2 km/h 6.4 km/h 65% 0 mm 508 W/m2
09:02 9.4 °C 3.3 °C 1016.1 hPa SE 4.8 km/h 4.8 km/h 66% 0 mm 392 W/m2
09:08 9.7 °C 2.9 °C 1015.8 hPa East 3.2 km/h 4.8 km/h 63% 0 mm 464 W/m2
09:14 9.9 °C 3.7 °C 1015.8 hPa East 1.6 km/h 3.2 km/h 65% 0 mm 480 W/m2
09:20 10.3 °C 3.1 °C 1015.8 hPa ENE 3.2 km/h 6.4 km/h 61% 0 mm 399 W/m2
09:26 10.5 °C 3.5 °C 1015.8 hPa NE 3.2 km/h 6.4 km/h 62% 0 mm 415 W/m2
09:32 10.8 °C 3.1 °C 1015.8 hPa ENE 3.2 km/h 6.4 km/h 59% 0 mm 645 W/m2
09:38 10.8 °C 3.1 °C 1016.1 hPa East 4.8 km/h 8 km/h 59% 0 mm 642 W/m2
09:44 11.2 °C 3.4 °C 1016.1 hPa ESE 3.2 km/h 4.8 km/h 59% 0 mm 601 W/m2
09:50 11.6 °C 3.1 °C 1016.1 hPa ENE 3.2 km/h 3.2 km/h 56% 0 mm 617 W/m2
09:56 11.7 °C 3.9 °C 1016.1 hPa ESE 4.8 km/h 4.8 km/h 59% 0 mm 675 W/m2
10:02 12.1 °C 3 °C 1015.8 hPa ENE 3.2 km/h 4.8 km/h 54% 0 mm 714 W/m2
10:08 12.1 °C 2.8 °C 1015.8 hPa East 4.8 km/h 4.8 km/h 53% 0 mm 663 W/m2
10:14 12.2 °C 3.1 °C 1015.8 hPa East 4.8 km/h 9.7 km/h 54% 0 mm 580 W/m2
10:19 12.5 °C 3.4 °C 1015.8 hPa East 4.8 km/h 12.9 km/h 54% 0 mm 557 W/m2
10:26 12.3 °C 3 °C 1015.5 hPa East 4.8 km/h 12.9 km/h 53% 0 mm 624 W/m2
10:32 12.8 °C 2.6 °C 1015.1 hPa NNE 4.8 km/h 4.8 km/h 50% 0 mm 737 W/m2
10:38 13 °C 3.1 °C 1015.1 hPa SE 4.8 km/h 6.4 km/h 51% 0 mm 649 W/m2
10:44 12.8 °C 2.4 °C 1015.5 hPa SE 6.4 km/h 9.7 km/h 49% 0 mm 661 W/m2
10:50 12.8 °C 2.4 °C 1015.5 hPa SSE 4.8 km/h 4.8 km/h 49% 0 mm 696 W/m2
10:55 12.9 °C 1.9 °C 1015.5 hPa ENE 4.8 km/h 8 km/h 47% 0 mm 747 W/m2
11:02 13.5 °C 2.1 °C 1015.1 hPa ESE 4.8 km/h 4.8 km/h 46% 0 mm 921 W/m2
11:08 13.7 °C 1.3 °C 1015.1 hPa East 6.4 km/h 9.7 km/h 43% 0 mm 740 W/m2
11:14 13.8 °C 2.7 °C 1015.1 hPa NNE 6.4 km/h 8 km/h 47% 0 mm 519 W/m2
11:20 13.4 °C 2 °C 1015.1 hPa NE 4.8 km/h 8 km/h 46% 0 mm 515 W/m2
11:26 13.6 °C 1.3 °C 1014.8 hPa ESE 4.8 km/h 8 km/h 43% 0 mm 740 W/m2
11:32 13.9 °C 1.9 °C 1014.4 hPa East 3.2 km/h 4.8 km/h 44% 0 mm 923 W/m2
11:38 13.8 °C 1.4 °C 1014.4 hPa ESE 3.2 km/h 4.8 km/h 43% 0 mm 338 W/m2
11:44 13.8 °C 1.4 °C 1014.1 hPa ENE 3.2 km/h 3.2 km/h 43% 0 mm 489 W/m2
11:50 14.2 °C 3 °C 1014.1 hPa East 3.2 km/h 8 km/h 47% 0 mm 872 W/m2
11:56 14.2 °C 1.4 °C 1014.1 hPa NE 6.4 km/h 8 km/h 42% 0 mm 701 W/m2
12:02 14.2 °C 3 °C 1014.1 hPa NE 4.8 km/h 8 km/h 47% 0 mm 940 W/m2
12:04 14.1 °C 1.7 °C 1014.1 hPa ENE 4.8 km/h 8 km/h 43% 0 mm 940 W/m2
12:10 14.1 °C 2.3 °C 1014.1 hPa SSW 4.8 km/h 6.4 km/h 45% 0 mm 1023 W/m2
12:16 14.3 °C 2.2 °C 1014.1 hPa East 4.8 km/h 8 km/h 44% 0 mm 837 W/m2
12:22 14.6 °C 2.1 °C 1014.1 hPa North 6.4 km/h 6.4 km/h 43% 0 mm 942 W/m2
12:28 15.1 °C 4.2 °C 1014.1 hPa NNE 6.4 km/h 11.3 km/h 48% 0 mm 998 W/m2
12:34 14.8 °C 3 °C 1014.1 hPa NNW 6.4 km/h 11.3 km/h 45% 0 mm 1005 W/m2
12:40 14.9 °C 3.4 °C 1014.1 hPa SSE 4.8 km/h 6.4 km/h 46% 0 mm 1034 W/m2
12:46 14.9 °C 3.1 °C 1013.8 hPa NE 4.8 km/h 6.4 km/h 45% 0 mm 1071 W/m2
12:52 15.3 °C 2.8 °C 1013.8 hPa NNE 1.6 km/h 3.2 km/h 43% 0 mm 1046 W/m2
12:58 15.4 °C 3.8 °C 1013.8 hPa SSE 3.2 km/h 6.4 km/h 46% 0 mm 573 W/m2
13:04 15.2 °C 2.7 °C 1013.8 hPa East 4.8 km/h 8 km/h 43% 0 mm 504 W/m2
13:10 15 °C 2.5 °C 1013.8 hPa ENE 4.8 km/h 4.8 km/h 43% 0 mm 1169 W/m2
13:16 14.9 °C 2.7 °C 1013.4 hPa SW 4.8 km/h 6.4 km/h 44% 0 mm 439 W/m2
13:22 15.5 °C 4.2 °C 1013.4 hPa SSE 3.2 km/h 11.3 km/h 47% 0 mm 510 W/m2
13:28 15.4 °C 3.2 °C 1013.4 hPa NE 4.8 km/h 11.3 km/h 44% 0 mm 510 W/m2
13:34 15.6 °C 3.3 °C 1013.4 hPa East 4.8 km/h 12.9 km/h 44% 0 mm 1005 W/m2
13:40 15.7 °C 2.8 °C 1013.4 hPa East 6.4 km/h 6.4 km/h 42% 0 mm 1005 W/m2
13:46 15.3 °C 2.8 °C 1013.4 hPa South 6.4 km/h 8 km/h 43% 0 mm 454 W/m2
13:52 15.3 °C 2.5 °C 1013.1 hPa SSE 3.2 km/h 4.8 km/h 42% 0 mm 721 W/m2
13:58 16.2 °C 4.5 °C 1013.1 hPa SSE 1.6 km/h 4.8 km/h 46% 0 mm 455 W/m2
14:04 16.2 °C 3.2 °C 1013.1 hPa ENE 4.8 km/h 11.3 km/h 42% 0 mm 1245 W/m2
14:10 16 °C 2.1 °C 1013.1 hPa SE 6.4 km/h 6.4 km/h 39% 0 mm 970 W/m2
14:16 16.1 °C 2.1 °C 1013.1 hPa East 4.8 km/h 9.7 km/h 39% 0 mm 970 W/m2
14:22 16.1 °C 4.5 °C 1013.1 hPa ESE 4.8 km/h 6.4 km/h 46% 0 mm 446 W/m2
14:28 15.7 °C 2.5 °C 1013.1 hPa South 3.2 km/h 6.4 km/h 41% 0 mm 403 W/m2
14:34 16.4 °C 3.2 °C 1013.1 hPa ENE 3.2 km/h 11.3 km/h 41% 0 mm 817 W/m2
14:40 16.1 °C 3.8 °C 1012.8 hPa North 6.4 km/h 6.4 km/h 44% 0 mm 496 W/m2
14:46 16.4 °C 3.8 °C 1013.1 hPa NNE 6.4 km/h 6.4 km/h 43% 0 mm 837 W/m2
14:52 16.4 °C 3.2 °C 1013.1 hPa East 4.8 km/h 4.8 km/h 41% 0 mm 559 W/m2
14:58 16.2 °C 2.2 °C 1013.1 hPa ENE 3.2 km/h 8 km/h 39% 0 mm 450 W/m2
15:04 16 °C 2.4 °C 1013.1 hPa NE 3.2 km/h 6.4 km/h 40% 0 mm 390 W/m2
15:10 16.3 °C 2.7 °C 1013.1 hPa NE 4.8 km/h 4.8 km/h 40% 0 mm 700 W/m2
15:16 16.3 °C 3.1 °C 1013.1 hPa NW 4.8 km/h 4.8 km/h 41% 0 mm 652 W/m2
15:22 16.3 °C 3.3 °C 1013.1 hPa WNW 3.2 km/h 4.8 km/h 42% 0 mm 552 W/m2
15:28 16.4 °C 3.5 °C 1013.1 hPa NNE 3.2 km/h 6.4 km/h 42% 0 mm 455 W/m2
15:34 16.7 °C 3.7 °C 1013.1 hPa North 3.2 km/h 4.8 km/h 42% 0 mm 550 W/m2
15:40 16.8 °C 3.5 °C 1013.1 hPa NNE 3.2 km/h 3.2 km/h 41% 0 mm 373 W/m2
15:46 16.4 °C 2.7 °C 1013.1 hPa NW 3.2 km/h 8 km/h 40% 0 mm 283 W/m2
15:52 16.4 °C 4.1 °C 1013.1 hPa ESE 4.8 km/h 4.8 km/h 44% 0 mm 253 W/m2
15:58 16.3 °C 3.4 °C 1013.1 hPa East 1.6 km/h 6.4 km/h 42% 0 mm 218 W/m2
16:04 16.2 °C 2.6 °C 1013.1 hPa East 3.2 km/h 4.8 km/h 40% 0 mm 239 W/m2
16:10 16 °C 2.7 °C 1013.1 hPa East 3.2 km/h 3.2 km/h 41% 0 mm 251 W/m2
16:16 16.1 °C 2.1 °C 1013.1 hPa East 1.6 km/h 3.2 km/h 39% 0 mm 313 W/m2
16:22 16.4 °C 2.8 °C 1013.1 hPa Calm   1.6 km/h 40% 0 mm 316 W/m2
16:28 17.2 °C 4.1 °C 1012.8 hPa NW 1.6 km/h 3.2 km/h 42% 0 mm 566 W/m2
16:34 16.9 °C 3.6 °C 1013.1 hPa NW 1.6 km/h 1.6 km/h 41% 0 mm 227 W/m2
16:40 16.7 °C 3.7 °C 1012.8 hPa West 1.6 km/h 3.2 km/h 42% 0 mm 218 W/m2
16:46 16.4 °C 3.1 °C 1012.8 hPa West 1.6 km/h 3.2 km/h 41% 0 mm 221 W/m2
16:52 16.4 °C 4.1 °C 1012.8 hPa WNW 1.6 km/h 1.6 km/h 44% 0 mm 297 W/m2
16:58 16.4 °C 2.7 °C 1012.8 hPa West 1.6 km/h 1.6 km/h 40% 0 mm 241 W/m2
17:04 16.3 °C 4.7 °C 1012.8 hPa WNW 1.6 km/h 9.7 km/h 46% 0 mm 227 W/m2
17:10 15.3 °C 4.9 °C 1012.8 hPa NNW 6.4 km/h 6.4 km/h 50% 0 mm 223 W/m2
17:16 14.8 °C 5.1 °C 1012.8 hPa NW 8 km/h 8 km/h 52% 0 mm 232 W/m2
17:22 14.8 °C 5.9 °C 1012.8 hPa NW 6.4 km/h 8 km/h 55% 0 mm 262 W/m2
17:28 14.9 °C 5.4 °C 1012.8 hPa NNW 6.4 km/h 9.7 km/h 53% 0 mm 185 W/m2
17:34 14.9 °C 5.4 °C 1012.8 hPa NNE 6.4 km/h 8 km/h 53% 0 mm 142 W/m2
17:40 14.8 °C 5.3 °C 1012.8 hPa NNW 8 km/h 8 km/h 53% 0 mm 134 W/m2
17:45 14.6 °C 5.3 °C 1012.8 hPa NW 8 km/h 11.3 km/h 54% 0 mm 123 W/m2
17:52 14.3 °C 5.2 °C 1012.8 hPa NW 8 km/h 8 km/h 54% 0 mm 148 W/m2
17:58 14.3 °C 5.7 °C 1012.8 hPa NNW 6.4 km/h 8 km/h 56% 0 mm 171 W/m2
18:04 14.4 °C 5.5 °C 1013.1 hPa NNW 4.8 km/h 9.7 km/h 55% 0 mm 151 W/m2
18:10 14.4 °C 6 °C 1013.1 hPa North 4.8 km/h 4.8 km/h 57% 0 mm 135 W/m2
18:16 14.3 °C 5.9 °C 1013.1 hPa WNW 6.4 km/h 9.7 km/h 57% 0 mm 121 W/m2
18:22 14.2 °C 5.8 °C 1013.1 hPa NNW 6.4 km/h 9.7 km/h 57% 0 mm 107 W/m2
18:28 14.1 °C 5.9 °C 1013.1 hPa NW 4.8 km/h 9.7 km/h 58% 0 mm 88 W/m2
18:34 14 °C 5.8 °C 1012.8 hPa NNW 3.2 km/h 8 km/h 58% 0 mm 74 W/m2
18:40 13.9 °C 6 °C 1012.8 hPa NW 4.8 km/h 6.4 km/h 59% 0 mm 65 W/m2
18:46 13.8 °C 5.7 °C 1012.8 hPa North 4.8 km/h 6.4 km/h 58% 0 mm 67 W/m2
18:52 13.8 °C 5.9 °C 1012.8 hPa NNW 4.8 km/h 6.4 km/h 59% 0 mm 65 W/m2
18:58 13.7 °C 6.1 °C 1012.8 hPa NW 4.8 km/h 8 km/h 60% 0 mm 63 W/m2
19:04 13.7 °C 5.8 °C 1013.1 hPa WNW 4.8 km/h 8 km/h 59% 0 mm 62 W/m2
19:10 13.6 °C 6 °C 1013.1 hPa NNW 4.8 km/h 6.4 km/h 60% 0 mm 60 W/m2
19:16 13.6 °C 5.9 °C 1013.1 hPa North 4.8 km/h 11.3 km/h 60% 0 mm 56 W/m2
19:22 13.6 °C 5.9 °C 1013.1 hPa WNW 4.8 km/h 6.4 km/h 60% 0 mm 54 W/m2
19:28 13.6 °C 6.2 °C 1013.1 hPa NNW 4.8 km/h 6.4 km/h 61% 0 mm 47 W/m2
19:34 13.4 °C 5.8 °C 1013.1 hPa WNW 4.8 km/h 6.4 km/h 60% 0 mm 37 W/m2
19:40 13.3 °C 5.7 °C 1013.1 hPa North 4.8 km/h 4.8 km/h 60% 0 mm 30 W/m2
19:46 13.2 °C 5.8 °C 1013.1 hPa NNW 3.2 km/h 4.8 km/h 61% 0 mm 23 W/m2
19:52 13 °C 5.7 °C 1013.4 hPa WNW 3.2 km/h 3.2 km/h 61% 0 mm 18 W/m2
19:58 12.9 °C 5.8 °C 1013.4 hPa North 3.2 km/h 11.3 km/h 62% 0 mm 16 W/m2
20:04 12.8 °C 5.9 °C 1013.1 hPa NNW 4.8 km/h 6.4 km/h 63% 0 mm 14 W/m2
20:09 12.7 °C 5.8 °C 1013.1 hPa NW 3.2 km/h 8 km/h 63% 0 mm 9 W/m2
20:16 12.6 °C 5.7 °C 1013.4 hPa NNW 3.2 km/h 8 km/h 63% 0 mm 5 W/m2
20:22 12.4 °C 5.8 °C 1013.4 hPa NW 3.2 km/h 4.8 km/h 64% 0 mm 5 W/m2
20:28 12.3 °C 5.9 °C 1013.4 hPa NNW 1.6 km/h 4.8 km/h 65% 0 mm 0 W/m2
20:32 12.2 °C 5.8 °C 1013.4 hPa NNW 1.6 km/h 3.2 km/h 65% 0 mm 0 W/m2
20:38 12.1 °C 5.9 °C 1013.4 hPa WNW 1.6 km/h 4.8 km/h 66% 0 mm 0 W/m2
20:44 12 °C 5.8 °C 1013.4 hPa WNW 1.6 km/h 4.8 km/h 66% 0 mm 0 W/m2
20:50 11.8 °C 5.9 °C 1013.4 hPa WNW 1.6 km/h 1.6 km/h 67% 0 mm 0 W/m2
20:56 11.7 °C 5.8 °C 1013.4 hPa WNW 1.6 km/h 3.2 km/h 67% 0 mm 0 W/m2
21:02 11.7 °C 5.9 °C 1013.8 hPa WNW 1.6 km/h 1.6 km/h 68% 0 mm 0 W/m2
21:08 11.6 °C 5.9 °C 1013.8 hPa WNW 1.6 km/h 3.2 km/h 68% 0 mm 0 W/m2
21:14 11.5 °C 5.8 °C 1013.4 hPa WNW 1.6 km/h 4.8 km/h 68% 0 mm 0 W/m2
21:20 11.4 °C 5.9 °C 1013.8 hPa WNW 1.6 km/h 1.6 km/h 69% 0 mm 0 W/m2
21:26 11.3 °C 5.8 °C 1013.8 hPa WNW 1.6 km/h 3.2 km/h 69% 0 mm 0 W/m2
21:32 11.3 °C 6 °C 1013.8 hPa North 1.6 km/h 3.2 km/h 70% 0 mm 0 W/m2
21:38 11.2 °C 5.9 °C 1013.8 hPa North 1.6 km/h 3.2 km/h 70% 0 mm 0 W/m2
21:44 11.1 °C 6 °C 1014.1 hPa Calm   3.2 km/h 71% 0 mm 0 W/m2
21:50 10.9 °C 5.9 °C 1014.1 hPa Calm     71% 0 mm 0 W/m2
21:56 10.8 °C 5.8 °C 1014.1 hPa Calm     71% 0 mm 0 W/m2
22:02 10.7 °C 5.8 °C 1014.1 hPa Calm     72% 0 mm 0 W/m2
22:08 10.6 °C 5.7 °C 1014.4 hPa Calm     72% 0 mm 0 W/m2
22:14 10.4 °C 5.8 °C 1014.4 hPa Calm     73% 0 mm 0 W/m2
22:20 10.3 °C 5.7 °C 1014.4 hPa Calm     73% 0 mm 0 W/m2
22:26 10.3 °C 5.8 °C 1014.4 hPa Calm     74% 0 mm 0 W/m2
22:32 10.1 °C 5.7 °C 1014.4 hPa Calm   1.6 km/h 74% 0 mm 0 W/m2
22:38 10 °C 5.8 °C 1014.4 hPa Calm   1.6 km/h 75% 0 mm 0 W/m2
22:44 9.9 °C 5.8 °C 1014.4 hPa Calm     76% 0 mm 0 W/m2
22:50 9.8 °C 5.7 °C 1014.4 hPa Calm     76% 0 mm 0 W/m2
22:55 9.7 °C 5.8 °C 1014.4 hPa Calm     77% 0 mm 0 W/m2
23:02 9.4 °C 5.6 °C 1014.4 hPa Calm     77% 0 mm 0 W/m2
23:08 9.3 °C 5.7 °C 1014.4 hPa Calm     78% 0 mm 0 W/m2
23:14 9.2 °C 5.6 °C 1014.1 hPa Calm     78% 0 mm 0 W/m2
23:20 9.1 °C 5.6 °C 1014.1 hPa Calm     79% 0 mm 0 W/m2
23:26 8.9 °C 5.6 °C 1014.1 hPa Calm     80% 0 mm 0 W/m2
23:32 8.8 °C 5.5 °C 1014.1 hPa Calm     80% 0 mm 0 W/m2
23:38 8.7 °C 5.4 °C 1014.1 hPa Calm     80% 0 mm 0 W/m2
23:44 8.6 °C 5.5 °C 1014.1 hPa Calm     81% 0 mm 0 W/m2
23:50 8.4 °C 5.5 °C 1014.1 hPa Calm     82% 0 mm 0 W/m2
23:56 8.1 °C 5.2 °C 1014.1 hPa Calm   3.2 km/h 82% 0 mm 0 W/m2
Country Meadow, Clay, NY, USA
Compliments of Weather Underground - 2 mb